Terminal Aerodrome Forecast
Issued by NWS

Home | Current Version | Previous Version | Text Only | Print | Product List | Glossary On
Versions: 1 2 3 4 5 6 7 8 9 10 11 12 13 14 15 16 17 18 19
000
FTUS46 KEKA 020520
TAFCEC
TAF
KCEC 020520Z 0206/0306 34012G20KT P6SM SKC
     FM020900 36009KT P6SM FEW250
     FM021700 34012G20KT P6SM FEW250
     FM030400 34008KT P6SM SKC=

USA.gov is the U.S. government's official web portal to all federal, state and local government web resources and services.